createdAt,value
2023-03-19T00:00:31.630Z,13.98
2023-03-19T00:02:59.369Z,16.75
2023-03-19T00:05:29.534Z,18.02
2023-03-19T00:07:57.006Z,27.02
2023-03-19T00:10:24.410Z,24.00
2023-03-19T00:12:51.587Z,24.40
2023-03-19T00:15:18.639Z,21.48
2023-03-19T00:17:46.829Z,22.00
2023-03-19T00:20:15.428Z,21.85
2023-03-19T00:22:42.697Z,19.40
2023-03-19T00:25:10.182Z,18.30
2023-03-19T00:27:38.652Z,19.88
2023-03-19T00:30:07.801Z,16.80
2023-03-19T00:32:36.768Z,26.73
2023-03-19T00:35:06.598Z,36.13
2023-03-19T00:37:34.735Z,41.67
2023-03-19T00:40:02.167Z,50.42
2023-03-19T00:42:29.727Z,73.22
2023-03-19T00:44:56.894Z,31.35
2023-03-19T00:47:24.423Z,17.77
2023-03-19T00:49:51.568Z,9.25
2023-03-19T00:52:18.598Z,7.53
2023-03-19T00:54:45.722Z,12.63
2023-03-19T00:57:12.582Z,10.27
2023-03-19T00:59:39.561Z,15.75
2023-03-19T01:02:07.158Z,10.35
2023-03-19T01:04:34.215Z,11.20
2023-03-19T01:07:01.454Z,13.30
2023-03-19T01:09:28.533Z,11.65
2023-03-19T01:11:55.420Z,15.43
2023-03-19T01:14:22.745Z,13.35
2023-03-19T01:16:49.825Z,13.75
2023-03-19T01:19:17.214Z,23.27
2023-03-19T01:21:46.621Z,15.35
2023-03-19T01:24:13.990Z,17.55
2023-03-19T01:26:41.520Z,14.23
2023-03-19T01:29:09.041Z,13.40
2023-03-19T01:31:37.472Z,16.10
2023-03-19T01:34:04.997Z,9.80
2023-03-19T01:36:32.270Z,12.25
2023-03-19T01:38:59.516Z,11.05
2023-03-19T01:41:26.542Z,12.57
2023-03-19T01:43:54.180Z,11.25
2023-03-19T01:46:37.228Z,10.52
2023-03-19T01:49:08.110Z,8.18
2023-03-19T01:51:41.927Z,9.10
2023-03-19T01:54:15.017Z,10.23
2023-03-19T01:56:43.673Z,11.02
2023-03-19T01:59:27.655Z,11.73
2023-03-19T02:02:05.312Z,12.70
2023-03-19T02:04:34.441Z,12.68
2023-03-19T02:07:03.685Z,14.88
2023-03-19T02:09:31.991Z,11.38
2023-03-19T02:12:01.776Z,10.57
2023-03-19T02:14:29.002Z,13.43
2023-03-19T02:16:56.200Z,10.10
2023-03-19T02:19:41.173Z,11.93
2023-03-19T02:22:11.039Z,11.68
2023-03-19T02:25:20.406Z,8.10
2023-03-19T02:27:47.688Z,14.73
2023-03-19T02:30:32.046Z,14.07
2023-03-19T02:32:59.625Z,9.80
2023-03-19T02:35:27.526Z,10.70
2023-03-19T02:37:54.578Z,8.20
2023-03-19T02:40:34.472Z,9.27
2023-03-19T02:43:01.748Z,6.45
2023-03-19T02:45:32.508Z,8.43
2023-03-19T02:48:00.656Z,15.85
2023-03-19T02:50:28.238Z,5.55
2023-03-19T02:52:55.242Z,7.65
2023-03-19T02:55:22.195Z,10.63
2023-03-19T02:57:49.299Z,9.73
2023-03-19T03:00:21.189Z,6.55
2023-03-19T03:02:48.074Z,8.75
2023-03-19T03:05:15.431Z,8.38
2023-03-19T03:07:44.176Z,8.30
2023-03-19T03:10:12.148Z,8.00
2023-03-19T03:12:39.508Z,6.25
2023-03-19T03:15:11.050Z,6.43
2023-03-19T03:17:39.809Z,7.00
2023-03-19T03:20:08.509Z,8.35
2023-03-19T03:22:35.853Z,6.22
2023-03-19T03:25:02.963Z,7.18
2023-03-19T03:27:30.152Z,10.23
2023-03-19T03:29:57.626Z,7.85
2023-03-19T03:32:24.673Z,7.40
2023-03-19T03:34:51.743Z,9.43
2023-03-19T03:37:19.868Z,6.35
2023-03-19T03:39:46.830Z,10.10
2023-03-19T03:42:13.868Z,9.30
2023-03-19T03:44:41.082Z,7.03
2023-03-19T03:47:08.597Z,8.15
2023-03-19T03:49:35.852Z,8.00
2023-03-19T03:52:02.932Z,8.63
2023-03-19T03:54:30.298Z,6.47
2023-03-19T03:56:57.272Z,8.57
2023-03-19T03:59:25.775Z,6.78
2023-03-19T04:01:53.065Z,5.55
2023-03-19T04:04:20.345Z,6.22
2023-03-19T04:06:47.346Z,9.32
2023-03-19T04:09:17.533Z,9.55
2023-03-19T04:11:44.749Z,9.05
2023-03-19T04:14:11.799Z,6.80
2023-03-19T04:16:38.838Z,6.65
2023-03-19T04:19:07.728Z,9.85
2023-03-19T04:21:34.972Z,6.85
2023-03-19T04:24:02.277Z,9.15
2023-03-19T04:26:29.267Z,8.88
2023-03-19T04:28:58.056Z,8.13
2023-03-19T04:31:25.765Z,8.85
2023-03-19T04:33:53.909Z,6.50
2023-03-19T04:36:21.592Z,8.45
2023-03-19T04:38:48.574Z,8.75
2023-03-19T04:41:18.274Z,7.30
2023-03-19T04:43:45.196Z,5.93
2023-03-19T04:46:12.481Z,6.80
2023-03-19T04:48:40.091Z,7.53
2023-03-19T04:51:09.757Z,9.57
2023-03-19T04:53:38.110Z,6.18
2023-03-19T04:56:07.507Z,9.52
2023-03-19T04:58:35.379Z,5.72
2023-03-19T05:01:02.334Z,7.53
2023-03-19T05:03:29.351Z,8.32
2023-03-19T05:05:56.452Z,7.20
2023-03-19T05:08:23.434Z,5.88
2023-03-19T05:10:50.413Z,6.95
2023-03-19T05:13:20.435Z,8.85
2023-03-19T05:15:48.652Z,8.25
2023-03-19T05:18:16.617Z,6.25
2023-03-19T05:20:44.090Z,9.10
2023-03-19T05:23:11.674Z,10.73
2023-03-19T05:25:38.600Z,8.65
2023-03-19T05:28:07.639Z,8.98
2023-03-19T05:30:36.167Z,10.32
2023-03-19T05:33:04.056Z,13.30
2023-03-19T05:35:32.117Z,6.15
2023-03-19T05:37:59.171Z,6.57
2023-03-19T05:40:27.194Z,7.38
2023-03-19T05:42:54.151Z,7.20
2023-03-19T05:45:21.522Z,7.05
2023-03-19T05:47:50.533Z,9.50
2023-03-19T05:50:20.771Z,7.47
2023-03-19T05:52:48.018Z,7.38
2023-03-19T05:55:15.230Z,11.90
2023-03-19T05:57:42.485Z,7.82
2023-03-19T06:00:12.143Z,8.95
2023-03-19T06:02:39.278Z,9.85
2023-03-19T06:05:07.149Z,7.72
2023-03-19T06:07:34.290Z,10.73
2023-03-19T06:10:01.797Z,9.73
2023-03-19T06:12:28.899Z,9.93
2023-03-19T06:14:56.740Z,7.30
2023-03-19T06:17:23.698Z,7.85
2023-03-19T06:19:50.756Z,8.55
2023-03-19T06:22:17.813Z,8.73
2023-03-19T06:24:45.153Z,7.78
2023-03-19T06:27:12.542Z,9.50
2023-03-19T06:29:39.544Z,8.23
2023-03-19T06:32:06.597Z,7.38
2023-03-19T06:34:33.573Z,6.50
2023-03-19T06:37:03.016Z,7.35
2023-03-19T06:39:30.004Z,8.23
2023-03-19T06:41:57.957Z,6.50
2023-03-19T06:44:25.601Z,7.68
2023-03-19T06:46:52.944Z,7.68
2023-03-19T06:49:19.909Z,8.95
2023-03-19T06:51:46.943Z,9.93
2023-03-19T06:54:14.177Z,8.55
2023-03-19T06:56:41.254Z,8.52
2023-03-19T06:59:08.703Z,6.38
2023-03-19T07:01:36.176Z,8.77
2023-03-19T07:04:03.069Z,9.23
2023-03-19T07:06:30.683Z,7.65
2023-03-19T07:08:57.674Z,5.63
2023-03-19T07:11:24.726Z,9.73
2023-03-19T07:13:52.253Z,7.70
2023-03-19T07:16:19.981Z,6.25
2023-03-19T07:18:47.149Z,8.98
2023-03-19T07:21:14.065Z,10.43
2023-03-19T07:23:41.821Z,6.00
2023-03-19T07:26:08.893Z,9.18
2023-03-19T07:28:36.301Z,7.07
2023-03-19T07:31:03.842Z,11.13
2023-03-19T07:33:31.639Z,9.18
2023-03-19T07:35:58.518Z,10.18
2023-03-19T07:38:26.458Z,6.57
2023-03-19T07:41:02.044Z,7.10
2023-03-19T07:43:30.193Z,6.20
2023-03-19T07:45:57.841Z,8.57
2023-03-19T07:48:25.067Z,9.15
2023-03-19T07:50:52.166Z,9.10
2023-03-19T07:53:19.577Z,8.60
2023-03-19T07:55:49.364Z,5.95
2023-03-19T07:58:17.122Z,7.43
2023-03-19T08:00:45.044Z,6.88
2023-03-19T08:03:12.651Z,7.75
2023-03-19T08:05:40.466Z,9.15
2023-03-19T08:08:07.669Z,5.75
2023-03-19T08:10:36.599Z,7.47
2023-03-19T08:13:05.391Z,5.85
2023-03-19T08:15:32.905Z,6.68
2023-03-19T08:18:02.130Z,5.70
2023-03-19T08:20:29.274Z,9.20
2023-03-19T08:22:57.576Z,8.57
2023-03-19T08:25:26.231Z,6.72
2023-03-19T08:27:53.704Z,9.18
2023-03-19T08:30:21.412Z,8.35
2023-03-19T08:32:49.339Z,6.47
2023-03-19T08:35:19.069Z,11.45
2023-03-19T08:37:46.422Z,7.55
2023-03-19T08:40:13.908Z,7.65
2023-03-19T08:42:45.035Z,8.13
2023-03-19T08:45:14.977Z,7.55
2023-03-19T08:47:43.272Z,6.68
2023-03-19T08:50:11.807Z,10.20
2023-03-19T08:52:39.261Z,6.80
2023-03-19T08:55:10.895Z,10.48
2023-03-19T08:57:40.546Z,8.50
2023-03-19T09:00:09.078Z,6.60
2023-03-19T09:02:36.057Z,8.30
2023-03-19T09:05:03.459Z,6.35
2023-03-19T09:07:30.578Z,8.70
2023-03-19T09:09:57.579Z,5.88
2023-03-19T09:12:26.202Z,6.43
2023-03-19T09:14:53.089Z,5.97
2023-03-19T09:17:20.390Z,7.50
2023-03-19T09:19:47.236Z,5.95
2023-03-19T09:22:14.472Z,9.73
2023-03-19T09:24:41.761Z,8.05
2023-03-19T09:27:11.769Z,8.82
2023-03-19T09:29:38.735Z,5.43
2023-03-19T09:32:06.288Z,8.10
2023-03-19T09:34:33.402Z,6.55
2023-03-19T09:37:00.413Z,8.05
2023-03-19T09:39:27.489Z,8.20
2023-03-19T09:42:06.301Z,4.68
2023-03-19T09:44:39.926Z,6.88
2023-03-19T09:47:34.046Z,5.68
2023-03-19T09:50:24.180Z,9.52
2023-03-19T09:53:08.621Z,6.45
2023-03-19T09:55:48.669Z,6.03
2023-03-19T09:58:32.409Z,6.65
2023-03-19T10:01:03.897Z,7.18
2023-03-19T10:03:33.581Z,9.57
2023-03-19T10:06:29.602Z,7.78
2023-03-19T10:09:36.737Z,10.50
2023-03-19T10:12:22.752Z,11.73
2023-03-19T10:15:25.793Z,7.75
2023-03-19T10:18:16.071Z,7.18
2023-03-19T10:21:03.788Z,9.20
2023-03-19T10:23:40.551Z,7.15
2023-03-19T10:26:19.760Z,7.85
2023-03-19T10:29:09.611Z,9.00
2023-03-19T10:32:14.320Z,10.32
2023-03-19T10:34:50.296Z,14.77
2023-03-19T10:37:24.251Z,13.93
2023-03-19T10:39:57.067Z,8.85
2023-03-19T10:45:05.853Z,6.75
2023-03-19T10:47:40.171Z,8.60
2023-03-19T10:50:16.910Z,6.15
2023-03-19T10:52:46.588Z,9.32
2023-03-19T10:55:24.104Z,6.45
2023-03-19T10:57:57.683Z,9.00
2023-03-19T11:00:32.303Z,6.57
2023-03-19T11:03:02.072Z,7.60
2023-03-19T11:05:36.544Z,5.95
2023-03-19T11:08:10.050Z,8.75
2023-03-19T11:10:38.828Z,5.35
2023-03-19T11:13:26.582Z,4.93
2023-03-19T11:15:58.419Z,5.97
2023-03-19T11:18:36.042Z,6.38
2023-03-19T11:21:25.408Z,6.18
2023-03-19T11:23:59.984Z,6.93
2023-03-19T11:26:28.753Z,6.38
2023-03-19T11:29:04.757Z,6.55
2023-03-19T11:31:42.126Z,8.73
2023-03-19T11:34:48.335Z,4.22
2023-03-19T11:37:28.675Z,4.25
2023-03-19T11:40:14.514Z,7.03
2023-03-19T11:43:13.828Z,6.55
2023-03-19T11:46:05.307Z,9.80
2023-03-19T11:49:01.575Z,8.50
2023-03-19T11:52:00.832Z,7.53
2023-03-19T11:54:45.081Z,5.32
2023-03-19T11:58:07.034Z,8.90
2023-03-19T12:00:53.152Z,8.07
2023-03-19T12:04:04.370Z,5.53
2023-03-19T12:06:52.260Z,6.47
2023-03-19T12:09:43.240Z,5.72
2023-03-19T12:12:31.469Z,8.30
2023-03-19T12:15:09.500Z,5.63
2023-03-19T12:17:46.795Z,5.35
2023-03-19T12:20:19.982Z,6.03
2023-03-19T12:23:26.672Z,7.20
2023-03-19T12:26:11.878Z,5.65
2023-03-19T12:29:23.602Z,6.90
2023-03-19T12:32:34.307Z,6.50
2023-03-19T12:35:44.642Z,6.45
2023-03-19T12:38:27.160Z,6.90
2023-03-19T12:41:31.754Z,6.97
2023-03-19T12:44:10.251Z,5.03
2023-03-19T12:46:54.676Z,5.05
2023-03-19T12:49:35.322Z,4.97
2023-03-19T12:52:27.653Z,4.35
2023-03-19T12:55:21.900Z,6.00
2023-03-19T12:58:00.376Z,5.15
2023-03-19T13:00:46.721Z,4.28
2023-03-19T13:03:20.899Z,7.43
2023-03-19T13:05:57.370Z,5.07
2023-03-19T13:08:30.710Z,3.72
2023-03-19T13:11:00.620Z,3.92
2023-03-19T13:13:52.080Z,4.07
2023-03-19T13:16:45.881Z,3.35
2023-03-19T13:19:30.739Z,4.57
2023-03-19T13:22:04.756Z,2.80
2023-03-19T13:24:38.829Z,3.13
2023-03-19T13:27:17.291Z,2.88
2023-03-19T13:30:11.825Z,3.72
2023-03-19T13:32:51.245Z,3.13
2023-03-19T13:35:43.695Z,3.58
2023-03-19T13:38:25.006Z,2.42
2023-03-19T13:40:58.249Z,2.85
2023-03-19T13:43:29.150Z,2.95
2023-03-19T13:46:31.676Z,3.15
2023-03-19T13:49:31.057Z,2.60
2023-03-19T13:52:34.935Z,3.33
2023-03-19T13:55:24.874Z,2.28
2023-03-19T13:58:12.932Z,4.10
2023-03-19T14:00:43.165Z,3.38
2023-03-19T14:03:32.978Z,3.33
2023-03-19T14:06:01.613Z,4.93
2023-03-19T14:08:48.247Z,3.70
2023-03-19T14:11:31.120Z,3.90
2023-03-19T14:16:38.759Z,5.78
2023-03-19T14:19:17.094Z,4.95
2023-03-19T14:21:55.982Z,4.22
2023-03-19T14:24:55.229Z,3.08
2023-03-19T14:27:30.633Z,3.90
2023-03-19T14:30:03.041Z,4.55
2023-03-19T14:32:36.475Z,3.88
2023-03-19T14:35:06.882Z,4.20
2023-03-19T14:37:36.874Z,6.55
2023-03-19T14:40:29.060Z,5.32
2023-03-19T14:43:42.284Z,2.83
2023-03-19T14:46:44.258Z,3.92
2023-03-19T14:49:54.574Z,3.50
2023-03-19T14:52:29.536Z,2.58
2023-03-19T14:55:17.621Z,1.80
2023-03-19T14:57:47.773Z,2.38
2023-03-19T15:00:19.283Z,2.38
2023-03-19T15:02:56.181Z,2.60
2023-03-19T15:05:38.651Z,2.30
2023-03-19T15:08:12.430Z,2.20
2023-03-19T15:11:16.927Z,3.67
2023-03-19T15:14:15.400Z,4.22
2023-03-19T15:17:38.870Z,6.45
2023-03-19T15:20:24.230Z,6.43
2023-03-19T15:23:01.446Z,1.73
2023-03-19T15:25:29.095Z,0.50
2023-03-19T15:28:13.989Z,0.40
2023-03-19T15:30:53.487Z,4.78
2023-03-19T15:33:39.610Z,2.13
2023-03-19T15:36:13.338Z,0.95
2023-03-19T15:38:58.817Z,0.50
2023-03-19T15:41:29.922Z,1.05
2023-03-19T15:43:57.714Z,1.40
2023-03-19T15:46:32.889Z,0.30
2023-03-19T15:49:12.114Z,1.27
2023-03-19T15:51:41.995Z,1.42
2023-03-19T15:54:12.503Z,2.28
2023-03-19T15:56:39.813Z,1.00
2023-03-19T15:59:07.048Z,0.30
2023-03-19T16:01:37.656Z,0.38
2023-03-19T16:04:08.641Z,1.25
2023-03-19T16:06:40.660Z,0.63
2023-03-19T16:09:29.916Z,0.75
2023-03-19T16:11:57.771Z,0.50
2023-03-19T16:14:41.668Z,1.40
2023-03-19T16:17:16.083Z,0.75
2023-03-19T16:20:00.767Z,1.63
2023-03-19T16:22:34.076Z,0.77
2023-03-19T16:25:02.544Z,1.08
2023-03-19T16:27:38.189Z,0.60
2023-03-19T16:30:26.908Z,1.27
2023-03-19T16:33:05.929Z,0.95
2023-03-19T16:35:35.239Z,3.08
2023-03-19T16:38:23.937Z,1.17
2023-03-19T16:41:32.569Z,1.63
2023-03-19T16:44:17.339Z,0.77
2023-03-19T16:46:45.477Z,1.65
2023-03-19T16:49:12.944Z,2.05
2023-03-19T16:51:40.206Z,0.43
2023-03-19T16:54:07.947Z,0.40
2023-03-19T16:56:35.300Z,0.82
2023-03-19T16:59:03.738Z,0.32
2023-03-19T17:01:31.187Z,1.85
2023-03-19T17:03:59.147Z,0.77
2023-03-19T17:06:29.594Z,0.80
2023-03-19T17:08:56.872Z,1.40
2023-03-19T17:11:36.932Z,3.70
2023-03-19T17:14:06.801Z,7.40
2023-03-19T17:16:34.983Z,3.40
2023-03-19T17:19:29.242Z,1.35
2023-03-19T17:21:59.517Z,1.85
2023-03-19T17:24:33.633Z,1.10
2023-03-19T17:27:04.078Z,1.92
2023-03-19T17:29:31.779Z,3.40
2023-03-19T17:32:02.070Z,9.07
2023-03-19T17:34:32.088Z,8.65
2023-03-19T17:37:02.521Z,4.43
2023-03-19T17:39:33.014Z,7.97
2023-03-19T17:42:00.412Z,6.05
2023-03-19T17:44:28.064Z,5.93
2023-03-19T17:46:56.198Z,6.03
2023-03-19T17:49:31.909Z,10.57
2023-03-19T17:51:59.882Z,10.75
2023-03-19T17:54:28.034Z,6.13
2023-03-19T17:56:56.172Z,4.70
2023-03-19T17:59:24.024Z,2.20
2023-03-19T18:01:52.588Z,1.52
2023-03-19T18:04:21.851Z,1.98
2023-03-19T18:06:58.309Z,2.33
2023-03-19T18:09:33.250Z,1.20
2023-03-19T18:12:00.326Z,0.73
2023-03-19T18:14:27.272Z,2.25
2023-03-19T18:16:54.263Z,1.30
2023-03-19T18:19:31.169Z,1.52
2023-03-19T18:21:58.478Z,1.23
2023-03-19T18:24:25.587Z,2.03
2023-03-19T18:26:52.777Z,1.67
2023-03-19T18:29:20.317Z,1.95
2023-03-19T18:31:49.457Z,2.28
2023-03-19T18:34:17.894Z,1.92
2023-03-19T18:36:45.042Z,2.28
2023-03-19T18:39:16.603Z,1.08
2023-03-19T18:41:44.069Z,1.70
2023-03-19T18:44:12.494Z,3.95
2023-03-19T18:46:40.669Z,3.80
2023-03-19T18:49:22.615Z,5.15
2023-03-19T18:52:01.995Z,35.53
2023-03-19T18:54:31.666Z,35.22
2023-03-19T18:57:01.412Z,36.33
2023-03-19T18:59:32.710Z,20.42
2023-03-19T19:02:31.831Z,17.60
2023-03-19T19:04:58.965Z,12.80
2023-03-19T19:07:26.050Z,10.90
2023-03-19T19:09:53.094Z,22.40
2023-03-19T19:12:20.660Z,24.85
2023-03-19T19:14:48.782Z,28.15
2023-03-19T19:17:19.385Z,24.63
2023-03-19T19:19:46.634Z,25.23
2023-03-19T19:22:19.044Z,31.48
2023-03-19T19:24:48.831Z,27.25
2023-03-19T19:27:22.888Z,24.33
2023-03-19T19:29:50.868Z,20.63
2023-03-19T19:32:28.641Z,17.00
2023-03-19T19:34:55.801Z,15.48
2023-03-19T19:37:24.351Z,18.15
2023-03-19T19:39:51.822Z,17.10
2023-03-19T19:42:22.039Z,16.67
2023-03-19T19:44:56.140Z,16.92
2023-03-19T19:47:23.107Z,13.50
2023-03-19T19:49:50.166Z,11.55
2023-03-19T19:52:20.127Z,13.85
2023-03-19T19:54:47.714Z,15.13
2023-03-19T19:57:24.935Z,13.40
2023-03-19T19:59:53.257Z,17.63
2023-03-19T20:02:23.902Z,17.20
2023-03-19T20:04:51.106Z,10.63
2023-03-19T20:07:18.049Z,8.73
2023-03-19T20:09:45.275Z,9.20
2023-03-19T20:12:22.164Z,8.48
2023-03-19T20:14:49.975Z,8.10
2023-03-19T20:17:18.265Z,8.38
2023-03-19T20:19:45.675Z,10.63
2023-03-19T20:22:13.221Z,8.73
2023-03-19T20:24:40.605Z,11.10
2023-03-19T20:27:23.198Z,14.25
2023-03-19T20:29:50.956Z,5.85
2023-03-19T20:32:38.677Z,9.00
2023-03-19T20:35:16.835Z,8.35
2023-03-19T20:37:43.930Z,8.52
2023-03-19T20:40:13.069Z,9.02
2023-03-19T20:42:41.087Z,11.85
2023-03-19T20:45:17.068Z,11.45
2023-03-19T20:47:44.875Z,8.18
2023-03-19T20:50:29.997Z,6.18
2023-03-19T20:53:01.291Z,5.45
2023-03-19T20:55:35.135Z,5.55
2023-03-19T20:58:12.597Z,6.43
2023-03-19T21:00:39.516Z,8.68
2023-03-19T21:03:06.584Z,8.18
2023-03-19T21:05:38.873Z,8.45
2023-03-19T21:08:14.265Z,8.77
2023-03-19T21:10:45.393Z,9.98
2023-03-19T21:13:16.791Z,11.50
2023-03-19T21:15:52.265Z,10.95
2023-03-19T21:18:19.637Z,11.35
2023-03-19T21:20:54.829Z,12.65
2023-03-19T21:23:35.159Z,11.07
2023-03-19T21:26:17.210Z,12.80
2023-03-19T21:28:46.616Z,14.10
2023-03-19T21:31:18.888Z,11.32
2023-03-19T21:33:50.704Z,12.15
2023-03-19T21:36:18.388Z,10.23
2023-03-19T21:38:46.519Z,11.05
2023-03-19T21:41:31.686Z,9.63
2023-03-19T21:44:05.666Z,12.73
2023-03-19T21:46:34.251Z,12.45
2023-03-19T21:49:01.963Z,10.55
2023-03-19T21:51:29.569Z,14.23
2023-03-19T21:53:56.693Z,14.00
2023-03-19T21:56:32.773Z,15.93
2023-03-19T21:59:12.993Z,12.45
2023-03-19T22:01:40.441Z,16.50
2023-03-19T22:04:07.452Z,13.38
2023-03-19T22:06:34.538Z,14.25
2023-03-19T22:09:01.419Z,13.95
2023-03-19T22:11:31.615Z,13.73
2023-03-19T22:14:10.827Z,13.30
2023-03-19T22:16:38.301Z,14.10
2023-03-19T22:19:06.275Z,18.52
2023-03-19T22:21:34.912Z,21.48
2023-03-19T22:24:01.841Z,17.65
2023-03-19T22:26:38.592Z,19.65
2023-03-19T22:29:16.011Z,19.73
2023-03-19T22:31:43.474Z,23.77
2023-03-19T22:34:16.735Z,19.48
2023-03-19T22:36:44.679Z,20.92
2023-03-19T22:39:12.733Z,21.15
2023-03-19T22:41:45.620Z,23.27
2023-03-19T22:44:31.627Z,22.17
2023-03-19T22:47:01.042Z,20.67
2023-03-19T22:49:31.614Z,21.65
2023-03-19T22:51:58.935Z,22.95
2023-03-19T22:54:26.310Z,21.13
2023-03-19T22:56:53.628Z,19.67
2023-03-19T22:59:23.819Z,19.73
2023-03-19T23:01:51.369Z,21.60
2023-03-19T23:04:30.841Z,18.85
2023-03-19T23:07:00.182Z,19.05
2023-03-19T23:09:31.040Z,22.23
2023-03-19T23:11:59.556Z,19.08
2023-03-19T23:14:30.869Z,18.15
2023-03-19T23:17:03.835Z,22.95
2023-03-19T23:19:36.643Z,20.52
2023-03-19T23:22:06.731Z,21.85
2023-03-19T23:24:34.031Z,20.88
2023-03-19T23:27:02.575Z,21.30
2023-03-19T23:29:38.310Z,20.17
2023-03-19T23:32:06.398Z,21.60
2023-03-19T23:34:39.829Z,20.13
2023-03-19T23:37:09.883Z,17.63
2023-03-19T23:39:39.932Z,20.85
2023-03-19T23:42:08.698Z,20.38
2023-03-19T23:44:37.820Z,20.20
2023-03-19T23:47:08.410Z,20.13
2023-03-19T23:49:36.357Z,21.20
2023-03-19T23:52:05.260Z,20.17
2023-03-19T23:54:39.510Z,17.73
2023-03-19T23:57:13.104Z,22.05
2023-03-19T23:59:43.458Z,16.60
